Time;durP1;ratioP1;P1;durP2;ratioP2;P2;SDS_P1;SDS_P2;PMS_P1;PMS_P2;Temp;Humidity;BMP_temperature;BMP_pressure;BME280_temperature;BME280_humidity;BME280_pressure;Samples;Min_cycle;Max_cycle;Signal;HPM_P1;HPM_P2
2022/07/03 00:02:46;;;;;;;0.68;0.68;;;;;;;18.93;88.52;101436.31;20888443;28;21623;-77
2022/07/03 00:12:48;;;;;;;1.23;0.77;;;;;;;18.90;88.55;101421.25;20885947;28;20045;-76
2022/07/03 00:22:50;;;;;;;1.15;0.80;;;;;;;19.04;88.66;101440.84;20885249;28;20444;-76
2022/07/03 00:32:52;;;;;;;0.65;0.60;;;;;;;19.04;88.54;101432.75;20883269;28;20128;-76
2022/07/03 00:42:55;;;;;;;1.25;0.80;;;;;;;19.03;88.67;101431.03;20885372;28;20099;-76
2022/07/03 00:52:57;;;;;;;0.85;0.77;;;;;;;18.86;88.57;101397.38;20884222;28;20044;-77
2022/07/03 01:03:05;;;;;;;1.25;0.85;;;;;;;19.02;88.68;101413.16;20881279;28;20080;-77
2022/07/03 01:13:18;;;;;;;1.45;0.88;;;;;;;19.02;88.56;101402.34;20881577;28;20045;-77
2022/07/03 01:23:27;;;;;;;0.60;0.60;;;;;;;19.01;88.67;101406.03;20882110;28;20045;-76
2022/07/03 01:33:32;;;;;;;1.08;0.75;;;;;;;19.02;88.53;101402.34;20847356;28;20496;-76
2022/07/03 01:43:41;;;;;;;0.73;0.70;;;;;;;19.01;88.54;101384.44;20880985;28;20037;-76
2022/07/03 01:53:50;;;;;;;0.95;0.70;;;;;;;19.00;88.62;101378.19;20879430;28;20076;-76
2022/07/03 02:04:13;;;;;;;1.45;1.00;;;;;;;18.99;88.70;101363.81;20879187;28;20045;-76
2022/07/03 02:14:18;;;;;;;0.88;0.80;;;;;;;18.98;88.42;101363.97;20796553;28;20498;-76
2022/07/03 02:24:27;;;;;;;0.98;0.90;;;;;;;18.98;88.52;101358.56;20797804;28;20414;-76
2022/07/03 02:34:30;;;;;;;1.17;0.80;;;;;;;18.94;88.47;101357.09;20812022;28;20055;-76
2022/07/03 02:44:42;;;;;;;1.25;0.70;;;;;;;18.96;88.49;101357.81;20811547;28;20052;-76
2022/07/03 02:54:48;;;;;;;0.70;0.70;;;;;;;18.95;88.36;101366.91;20798863;28;20394;-76
2022/07/03 03:04:59;;;;;;;0.73;0.65;;;;;;;18.95;88.23;101348.84;20860501;28;20517;-77
2022/07/03 03:15:02;;;;;;;0.90;0.80;;;;;;;18.95;87.94;101354.25;20892168;28;20049;-76
2022/07/03 03:25:04;;;;;;;1.00;0.90;;;;;;;18.94;88.21;101349.84;20890150;28;20048;-77
2022/07/03 03:35:06;;;;;;;1.10;0.90;;;;;;;18.93;87.95;101369.72;20888225;28;20048;-76
2022/07/03 03:45:09;;;;;;;0.73;0.73;;;;;;;18.93;87.85;101368.88;20889950;28;20045;-76
2022/07/03 03:55:11;;;;;;;1.00;0.90;;;;;;;18.78;87.51;101350.34;20887336;28;20588;-77
2022/07/03 04:05:12;;;;;;;0.93;0.90;;;;;;;18.89;87.37;101349.38;20887750;28;20131;-77
2022/07/03 04:15:14;;;;;;;0.90;0.90;;;;;;;18.92;87.30;101346.44;20885906;28;20048;-77
2022/07/03 04:25:17;;;;;;;0.98;0.90;;;;;;;18.91;87.14;101355.50;20884739;28;20061;-76
2022/07/03 04:35:18;;;;;;;0.90;0.90;;;;;;;18.91;87.33;101369.00;20882281;28;20067;-78
2022/07/03 04:45:20;;;;;;;1.15;1.05;;;;;;;18.90;87.53;101383.47;20884153;28;20057;-77
2022/07/03 04:55:22;;;;;;;1.25;1.15;;;;;;;18.91;87.94;101381.66;20839339;28;20056;-77
2022/07/03 05:05:23;;;;;;;1.50;1.10;;;;;;;18.27;87.97;101265.66;20778846;28;20049;-78
2022/07/03 05:15:25;;;;;;;1.83;1.00;;;;;;;18.72;88.93;101352.69;20805400;28;20516;-76
2022/07/03 05:25:28;;;;;;;0.80;0.80;;;;;;;18.89;89.16;101370.13;20879863;28;20136;-77
2022/07/03 05:35:30;;;;;;;1.80;0.95;;;;;;;18.95;89.54;101375.00;20876953;28;20144;-77
2022/07/03 05:45:31;;;;;;;1.15;1.05;;;;;;;18.82;90.26;101359.00;20868525;28;20110;-77
2022/07/03 05:55:33;;;;;;;1.30;1.10;;;;;;;18.94;90.69;101389.47;20874622;28;20053;-77
2022/07/03 06:05:35;;;;;;;1.90;1.00;;;;;;;18.80;91.52;101371.75;20858401;28;20084;-77
2022/07/03 06:15:36;;;;;;;1.00;0.90;;;;;;;18.93;92.31;101396.69;20862842;28;20052;-76
2022/07/03 06:25:38;;;;;;;1.00;0.90;;;;;;;18.94;92.63;101401.09;20869134;28;20045;-76
2022/07/03 06:35:39;;;;;;;1.10;0.98;;;;;;;18.77;92.41;101363.94;20873074;28;20159;-76
2022/07/03 06:45:41;;;;;;;0.80;0.80;;;;;;;18.96;92.20;101395.59;20875571;28;20090;-77
2022/07/03 06:55:43;;;;;;;0.93;0.90;;;;;;;18.86;92.13;101387.41;20850094;28;20055;-76
2022/07/03 07:05:44;;;;;;;0.88;0.82;;;;;;;18.91;92.50;101401.38;20870318;28;20501;-78
2022/07/03 07:15:46;;;;;;;3.22;1.10;;;;;;;18.93;93.36;101404.78;20796227;28;20041;-76
2022/07/03 07:25:47;;;;;;;3.35;1.30;;;;;;;18.83;93.97;101399.34;20869409;28;20103;-77
2022/07/03 07:35:49;;;;;;;3.08;1.02;;;;;;;19.03;94.38;101421.09;20864720;28;20108;-77
2022/07/03 07:45:52;;;;;;;2.20;1.00;;;;;;;19.16;94.18;101433.53;20880560;28;20061;-77
2022/07/03 07:55:54;;;;;;;5.20;1.30;;;;;;;19.33;97.53;101434.78;20793700;28;20646;-76
2022/07/03 08:05:55;;;;;;;3.17;1.27;;;;;;;19.47;97.60;101429.06;20794906;28;20060;-76
2022/07/03 08:15:57;;;;;;;2.75;1.00;;;;;;;19.50;96.06;101411.72;20801587;28;20053;-75
2022/07/03 08:25:59;;;;;;;3.40;1.08;;;;;;;19.66;95.01;101436.38;20835993;28;20036;-75
2022/07/03 08:36:00;;;;;;;3.80;1.10;;;;;;;19.63;93.76;101427.69;20864629;28;20501;-75
2022/07/03 08:46:03;;;;;;;3.53;1.00;;;;;;;19.52;93.55;101426.78;20853264;28;20048;-76
2022/07/03 08:56:04;;;;;;;1.30;0.90;;;;;;;19.52;93.59;101445.69;20847433;28;20048;-76
2022/07/03 09:06:06;;;;;;;2.35;0.98;;;;;;;19.50;93.07;101439.59;20861356;28;20049;-76
2022/07/03 09:16:16;;;;;;;2.05;0.93;;;;;;;19.44;93.18;101440.09;20868496;28;20053;-76
2022/07/03 09:26:19;;;;;;;2.03;1.00;;;;;;;19.39;93.10;101454.00;20856778;28;20056;-75
2022/07/03 09:36:22;;;;;;;2.75;0.90;;;;;;;19.27;92.90;101428.91;20769494;28;20060;-75
2022/07/03 09:46:25;;;;;;;3.23;0.83;;;;;;;19.44;92.69;101460.84;20828842;28;20049;-76
2022/07/03 09:56:36;;;;;;;1.52;0.80;;;;;;;19.42;92.44;101455.56;20812952;28;20131;-75
2022/07/03 10:06:49;;;;;;;1.52;0.77;;;;;;;19.39;92.56;101450.44;20782053;28;20103;-75
2022/07/03 10:16:51;;;;;;;1.75;0.70;;;;;;;19.34;92.19;101453.56;20867887;28;20045;-75
2022/07/03 10:26:54;;;;;;;0.75;0.60;;;;;;;19.34;92.36;101466.19;20872155;28;20129;-75
2022/07/03 10:37:01;;;;;;;2.28;0.77;;;;;;;19.31;92.23;101464.63;20885272;28;20049;-75
2022/07/03 10:47:03;;;;;;;2.25;0.70;;;;;;;19.31;91.83;101472.72;20830322;28;20073;-75
2022/07/03 10:57:15;;;;;;;1.20;0.60;;;;;;;19.28;91.78;101457.63;20874049;28;20055;-76
2022/07/03 11:07:17;;;;;;;1.20;0.60;;;;;;;19.28;91.59;101462.19;20893277;28;20049;-75
2022/07/03 11:17:20;;;;;;;1.33;0.77;;;;;;;19.07;91.31;101427.94;20891042;28;20052;-76
2022/07/03 11:27:24;;;;;;;1.60;0.65;;;;;;;19.27;91.04;101453.22;20890213;28;20390;-75
2022/07/03 11:37:25;;;;;;;0.50;0.50;;;;;;;19.26;90.90;101445.25;20889311;28;20103;-75
2022/07/03 11:47:27;;;;;;;1.52;0.77;;;;;;;19.26;90.68;101446.09;20888256;28;20401;-75
2022/07/03 11:57:29;;;;;;;1.23;0.80;;;;;;;19.23;90.45;101449.06;20871544;28;20049;-76
2022/07/03 12:07:31;;;;;;;0.70;0.60;;;;;;;19.15;90.21;101427.28;20887726;28;20539;-76
2022/07/03 12:17:33;;;;;;;0.88;0.50;;;;;;;19.25;90.26;101444.41;20885917;28;20140;-75
2022/07/03 12:27:38;;;;;;;0.93;0.60;;;;;;;19.26;89.99;101439.88;20887217;28;20063;-76
2022/07/03 12:37:41;;;;;;;0.85;0.50;;;;;;;19.24;89.97;101425.66;20867755;28;20055;-75
2022/07/03 12:47:43;;;;;;;0.70;0.63;;;;;;;19.22;89.76;101420.38;20867345;28;20041;-75
2022/07/03 13:08:05;;;;;;;0.93;0.60;;;;;;;18.96;90.12;101380.25;20882781;28;20051;-76
2022/07/03 13:18:11;;;;;;;0.60;0.60;;;;;;;19.17;89.88;101408.25;20881007;28;20056;-75
2022/07/03 13:28:14;;;;;;;0.63;0.50;;;;;;;19.18;89.93;101394.63;20881612;28;20516;-76
2022/07/03 13:38:15;;;;;;;0.50;0.50;;;;;;;19.17;89.84;101397.44;20827406;28;20049;-75
2022/07/03 13:48:17;;;;;;;0.98;0.60;;;;;;;19.15;90.14;101408.41;20825603;28;20055;-75
2022/07/03 13:58:19;;;;;;;0.88;0.40;;;;;;;19.13;90.07;101475.97;20768858;28;20520;-75
2022/07/03 14:08:20;;;;;;;1.40;0.60;;;;;;;19.17;89.66;101503.59;20783329;28;21238;-75
2022/07/03 14:18:22;;;;;;;0.82;0.60;;;;;;;19.08;89.52;101483.63;20774311;28;20469;-75
2022/07/03 14:38:51;;;;;;;1.02;0.60;;;;;;;19.28;89.52;101468.41;20855275;28;20490;-75
2022/07/03 14:48:52;;;;;;;1.40;0.60;;;;;;;19.34;89.75;101483.25;20859983;28;20574;-75
2022/07/03 14:58:54;;;;;;;1.98;0.50;;;;;;;19.39;89.89;101477.44;20878164;28;20114;-75
2022/07/03 15:09:00;;;;;;;1.65;0.50;;;;;;;19.41;90.10;101484.44;20869827;28;20068;-75
2022/07/03 15:19:02;;;;;;;0.93;0.50;;;;;;;19.42;90.19;101483.44;20871120;28;20072;-75
2022/07/03 15:29:05;;;;;;;0.75;0.50;;;;;;;19.16;90.45;101461.38;20867250;28;20053;-75
2022/07/03 15:39:07;;;;;;;1.30;0.60;;;;;;;19.43;90.17;101513.97;20814502;28;20068;-74
2022/07/03 15:49:27;;;;;;;1.35;0.55;;;;;;;19.34;90.49;101498.56;20788019;28;20107;-75
2022/07/03 15:59:36;;;;;;;0.43;0.40;;;;;;;19.35;90.48;101506.56;20853569;28;20072;-75
2022/07/03 16:09:37;;;;;;;0.98;0.60;;;;;;;19.33;90.76;101513.94;20776700;28;20061;-76
2022/07/03 16:19:40;;;;;;;0.73;0.70;;;;;;;19.30;90.67;101524.13;20775560;28;20050;-74
2022/07/03 16:29:42;;;;;;;0.90;0.50;;;;;;;19.25;90.80;101519.13;20825218;28;20513;-75
2022/07/03 16:39:46;;;;;;;0.70;0.50;;;;;;;19.26;90.76;101528.94;20860918;28;20052;-74
2022/07/03 16:49:48;;;;;;;0.40;0.40;;;;;;;19.24;91.16;101536.31;20855462;28;20560;-75
2022/07/03 16:59:56;;;;;;;0.50;0.50;;;;;;;19.26;90.82;101526.25;20854882;28;20052;-74
2022/07/03 17:09:58;;;;;;;0.52;0.50;;;;;;;19.15;91.00;101502.84;20852232;28;20072;-74
2022/07/03 17:20:04;;;;;;;1.30;0.68;;;;;;;19.25;91.16;101529.94;20856563;28;20094;-75
2022/07/03 17:30:12;;;;;;;0.85;0.70;;;;;;;19.24;91.24;101536.31;20842768;28;20137;-75
2022/07/03 17:40:15;;;;;;;2.05;1.10;;;;;;;19.27;95.01;101530.66;20848010;28;20045;-75
2022/07/03 17:50:18;;;;;;;2.30;0.95;;;;;;;19.36;97.41;101547.91;20790641;28;20108;-76
2022/07/03 18:00:22;;;;;;;2.53;1.10;;;;;;;19.41;97.70;101540.25;20772924;28;20060;-75
2022/07/03 18:10:32;;;;;;;2.03;1.20;;;;;;;19.44;96.74;101533.75;20783400;28;20406;-76
2022/07/03 18:20:35;;;;;;;1.23;0.93;;;;;;;19.45;96.35;101538.16;20795383;28;20115;-76
2022/07/03 18:30:38;;;;;;;1.83;1.08;;;;;;;19.44;95.71;101558.91;20832193;28;20069;-76
2022/07/03 18:40:41;;;;;;;1.20;0.88;;;;;;;19.38;95.27;101554.03;20897503;28;20053;-76
2022/07/03 18:50:47;;;;;;;1.05;0.80;;;;;;;19.45;95.10;101574.16;20894993;28;20049;-75
2022/07/03 19:00:49;;;;;;;2.03;0.82;;;;;;;19.43;94.97;101576.09;20891174;28;20052;-76
2022/07/03 19:11:02;;;;;;;1.73;0.80;;;;;;;18.82;94.79;101472.28;20889792;28;20048;-75
2022/07/03 19:21:04;;;;;;;2.63;0.98;;;;;;;19.43;94.72;101570.69;20891034;28;20071;-75
2022/07/03 19:31:05;;;;;;;1.42;0.85;;;;;;;19.42;94.60;101563.56;20885827;28;20048;-76
2022/07/03 19:41:07;;;;;;;1.20;1.10;;;;;;;19.03;94.40;101517.41;20886417;28;20037;-75
2022/07/03 19:51:09;;;;;;;1.00;0.70;;;;;;;19.41;94.41;101584.34;20886181;28;20049;-75
2022/07/03 20:01:11;;;;;;;1.77;0.73;;;;;;;19.40;94.32;101604.22;20888043;28;20049;-75
2022/07/03 20:11:13;;;;;;;1.80;0.80;;;;;;;19.42;94.20;101609.47;20867603;28;20053;-76
2022/07/03 20:21:14;;;;;;;1.63;0.60;;;;;;;19.41;94.37;101624.84;20887711;28;20136;-76
2022/07/03 20:31:16;;;;;;;1.13;0.80;;;;;;;19.41;94.44;101613.16;20895444;28;20122;-75
2022/07/03 20:41:17;;;;;;;1.10;0.90;;;;;;;19.12;94.73;101568.72;20953050;28;20063;-76
2022/07/03 20:51:21;;;;;;;0.90;0.75;;;;;;;19.38;95.66;101613.44;20883652;28;20049;-77
2022/07/03 21:01:22;;;;;;;1.08;0.90;;;;;;;19.37;95.80;101631.47;20901464;28;20060;-77
2022/07/03 21:11:33;;;;;;;1.05;0.70;;;;;;;19.33;95.88;101632.72;20966340;28;20374;-77
2022/07/03 21:21:35;;;;;;;0.80;0.70;;;;;;;19.26;95.58;101632.38;20965898;28;20149;-76
2022/07/03 21:31:37;;;;;;;0.80;0.80;;;;;;;19.27;95.52;101642.19;20963344;28;20131;-76
2022/07/03 21:41:39;;;;;;;1.13;0.75;;;;;;;19.25;95.32;101657.66;20952236;28;20053;-76
2022/07/03 21:51:40;;;;;;;1.02;0.70;;;;;;;19.16;95.13;101652.16;20962485;28;20456;-76
2022/07/03 22:01:42;;;;;;;0.95;0.75;;;;;;;19.16;94.71;101653.03;20963257;28;20075;-76
2022/07/03 22:12:33;;;;;;;0.98;0.80;;;;;;;19.20;94.22;101665.28;20962793;28;20048;-76
2022/07/03 22:22:07;;;;;;;1.48;0.63;;;;;;;19.19;94.06;101668.97;20961812;28;20070;-76
2022/07/03 22:32:09;;;;;;;1.00;0.80;;;;;;;19.17;93.72;101662.84;20963026;28;20048;-76
2022/07/03 22:42:11;;;;;;;0.70;0.60;;;;;;;19.02;93.52;101645.22;20929400;28;20076;-77
2022/07/03 22:52:13;;;;;;;0.93;0.65;;;;;;;19.07;93.23;101648.38;20962001;28;20131;-77
2022/07/03 23:02:14;;;;;;;0.80;0.80;;;;;;;18.74;93.09;101591.59;20959427;28;20098;-76
2022/07/03 23:12:16;;;;;;;0.80;0.70;;;;;;;19.12;92.73;101638.06;20965506;28;20471;-76
2022/07/03 23:22:17;;;;;;;0.93;0.70;;;;;;;19.10;92.60;101638.19;20975582;28;20481;-76
2022/07/03 23:32:19;;;;;;;0.75;0.70;;;;;;;19.11;92.57;101633.66;20964211;28;20052;-76
2022/07/03 23:42:20;;;;;;;0.93;0.68;;;;;;;19.09;92.22;101636.47;20963413;28;20053;-77
2022/07/03 23:52:22;;;;;;;0.70;0.63;;;;;;;19.08;91.97;101639.31;20972567;28;20052;-76
